Time;durP1;ratioP1;P1;durP2;ratioP2;P2;SDS_P1;SDS_P2;PMS_P1;PMS_P2;Temp;Humidity;BMP_temperature;BMP_pressure;BME280_temperature;BME280_humidity;BME280_pressure;Samples;Min_cycle;Max_cycle;Signal;HPM_P1;HPM_P2
2021/09/26 00:00:46;;;;;;;24.67;14.20;;;16.50;99.90;;;;;;4802180;29;20090;-86
2021/09/26 00:03:11;;;;;;;27.45;16.15;;;16.50;99.90;;;;;;4806559;29;20051;-87
2021/09/26 00:05:37;;;;;;;24.77;13.93;;;16.50;99.90;;;;;;4801732;29;20054;-86
2021/09/26 00:08:03;;;;;;;25.30;14.88;;;16.40;99.90;;;;;;4785663;29;20062;-86
2021/09/26 00:10:29;;;;;;;27.27;16.02;;;16.50;99.90;;;;;;4782198;29;20055;-86
2021/09/26 00:12:55;;;;;;;21.27;14.50;;;16.50;99.90;;;;;;4819339;29;20070;-86
2021/09/26 00:15:22;;;;;;;25.95;15.68;;;16.50;99.90;;;;;;4807444;29;20062;-86
2021/09/26 00:17:49;;;;;;;36.00;15.00;;;16.50;99.90;;;;;;4804968;29;20058;-86
2021/09/26 00:20:16;;;;;;;26.30;15.05;;;16.50;99.90;;;;;;4812650;29;20077;-86
2021/09/26 00:22:42;;;;;;;33.95;16.75;;;16.50;99.90;;;;;;4807161;29;20046;-86
2021/09/26 00:25:10;;;;;;;25.60;17.35;;;16.50;99.90;;;;;;4806919;29;20051;-85
2021/09/26 00:27:36;;;;;;;25.55;14.95;;;16.50;99.90;;;;;;4807450;29;20482;-86
2021/09/26 00:30:05;;;;;;;27.67;16.90;;;16.50;99.90;;;;;;4797906;29;20100;-86
2021/09/26 00:32:31;;;;;;;27.07;15.37;;;16.50;99.90;;;;;;4803943;29;20050;-86
2021/09/26 00:34:56;;;;;;;33.03;16.42;;;16.50;99.90;;;;;;4788927;29;20522;-86
2021/09/26 00:37:22;;;;;;;30.67;17.13;;;16.50;99.90;;;;;;4782014;29;20130;-87
2021/09/26 00:39:48;;;;;;;30.05;15.18;;;16.50;99.90;;;;;;4799033;29;20074;-86
2021/09/26 00:42:14;;;;;;;31.25;17.63;;;16.50;99.90;;;;;;4806888;29;20054;-86
2021/09/26 00:44:40;;;;;;;30.00;18.52;;;16.50;99.90;;;;;;4807272;29;20062;-86
2021/09/26 00:47:06;;;;;;;32.90;16.50;;;16.50;99.90;;;;;;4806318;29;20054;-86
2021/09/26 00:49:31;;;;;;;33.42;17.92;;;16.50;99.90;;;;;;4806907;29;20054;-86
2021/09/26 00:52:00;;;;;;;27.98;15.52;;;16.50;99.90;;;;;;4802747;29;20055;-86
2021/09/26 00:54:26;;;;;;;30.02;16.67;;;16.50;99.90;;;;;;4797114;29;20070;-86
2021/09/26 00:56:52;;;;;;;25.80;15.88;;;16.40;99.90;;;;;;4821324;29;20058;-87
2021/09/26 00:59:20;;;;;;;33.55;17.65;;;16.40;99.90;;;;;;4806952;29;20069;-87
2021/09/26 01:01:49;;;;;;;31.10;17.33;;;16.50;99.90;;;;;;4806688;29;20057;-87
2021/09/26 01:04:17;;;;;;;31.40;18.52;;;16.40;99.90;;;;;;4791011;29;20487;-87
2021/09/26 01:07:08;;;;;;;22.58;15.63;;;16.40;99.90;;;;;;4803817;29;20404;-87
2021/09/26 01:09:39;;;;;;;24.38;15.32;;;16.40;99.90;;;;;;4789522;29;20047;-87
2021/09/26 01:12:05;;;;;;;28.00;17.20;;;16.40;99.90;;;;;;4799977;29;20107;-87
2021/09/26 01:14:52;;;;;;;25.40;16.05;;;16.40;99.90;;;;;;4806641;29;20089;-87
2021/09/26 01:18:01;;;;;;;25.40;14.85;;;16.40;99.90;;;;;;4801265;29;20087;-87
2021/09/26 01:20:35;;;;;;;27.90;15.68;;;16.40;99.90;;;;;;4806429;29;20050;-87
2021/09/26 01:23:04;;;;;;;27.08;16.45;;;16.40;99.90;;;;;;4797436;29;20133;-88
2021/09/26 01:25:54;;;;;;;29.95;16.42;;;16.40;99.90;;;;;;4806403;29;20137;-88
2021/09/26 01:28:57;;;;;;;27.88;14.75;;;16.40;99.90;;;;;;4806504;29;20054;-88
2021/09/26 01:31:31;;;;;;;26.55;16.08;;;16.40;99.90;;;;;;4818412;29;20054;-88
2021/09/26 01:34:21;;;;;;;27.65;15.93;;;16.40;99.90;;;;;;4797763;29;20085;-88
2021/09/26 01:36:50;;;;;;;36.75;15.93;;;16.40;99.90;;;;;;4791270;29;20566;-87
2021/09/26 01:39:27;;;;;;;22.70;15.23;;;16.40;99.90;;;;;;4815671;29;20680;-88
2021/09/26 01:42:11;;;;;;;25.30;14.77;;;16.40;99.90;;;;;;4776142;29;20138;-88
2021/09/26 01:44:42;;;;;;;25.13;13.98;;;16.40;99.90;;;;;;4816749;29;20076;-88
2021/09/26 01:47:11;;;;;;;25.60;14.57;;;16.30;99.90;;;;;;4805496;29;20659;-87
2021/09/26 01:50:00;;;;;;;24.08;15.57;;;16.30;99.90;;;;;;4791782;29;20126;-87
2021/09/26 01:52:32;;;;;;;24.35;13.70;;;16.40;99.90;;;;;;4806184;29;20171;-87
2021/09/26 01:54:58;;;;;;;23.35;14.32;;;16.30;99.90;;;;;;4803367;29;20065;-87
2021/09/26 01:57:25;;;;;;;19.95;13.73;;;16.30;99.90;;;;;;4795463;29;20058;-87
2021/09/26 01:59:54;;;;;;;25.35;12.77;;;16.30;99.90;;;;;;4821828;29;20058;-87
2021/09/26 02:02:21;;;;;;;23.10;13.50;;;16.30;99.90;;;;;;4821514;29;20054;-86
2021/09/26 02:04:50;;;;;;;37.40;13.25;;;16.30;99.90;;;;;;4800342;29;20538;-87
2021/09/26 02:07:17;;;;;;;;;;;16.30;99.90;;;;;;4805297;29;20265;-87
2021/09/26 02:09:46;;;;;;;30.58;12.75;;;16.30;99.90;;;;;;4798592;29;19925;-86
2021/09/26 02:12:13;;;;;;;20.23;11.93;;;16.30;99.90;;;;;;4814440;29;20069;-87
2021/09/26 02:14:40;;;;;;;19.77;12.25;;;16.30;99.90;;;;;;4805140;29;20083;-87
2021/09/26 02:17:06;;;;;;;19.50;11.80;;;16.30;99.90;;;;;;4789992;29;20518;-87
2021/09/26 02:19:34;;;;;;;27.25;11.38;;;16.30;99.90;;;;;;4788808;29;20060;-87
2021/09/26 02:22:00;;;;;;;24.38;12.27;;;16.30;99.90;;;;;;4804882;29;20058;-87
2021/09/26 02:24:26;;;;;;;19.30;11.90;;;16.30;99.90;;;;;;4805284;29;20058;-87
2021/09/26 02:26:52;;;;;;;37.42;11.98;;;16.20;99.90;;;;;;4821584;29;20735;-88
2021/09/26 02:29:18;;;;;;;21.08;12.10;;;16.30;99.90;;;;;;4788698;29;20308;-87
2021/09/26 02:31:46;;;;;;;18.60;10.38;;;16.20;99.90;;;;;;4805319;29;20054;-87
2021/09/26 02:34:12;;;;;;;18.30;11.48;;;16.20;99.90;;;;;;4804688;29;20085;-87
2021/09/26 02:36:41;;;;;;;21.13;11.55;;;16.20;99.90;;;;;;4790123;29;20138;-87
2021/09/26 02:39:08;;;;;;;22.65;11.02;;;16.30;99.90;;;;;;4788046;29;20063;-87
2021/09/26 02:41:49;;;;;;;20.13;11.48;;;16.30;99.90;;;;;;4802454;29;20054;-87
2021/09/26 02:44:25;;;;;;;25.73;12.18;;;16.20;99.90;;;;;;4804474;29;20118;-88
2021/09/26 02:46:57;;;;;;;25.90;12.50;;;16.20;99.90;;;;;;4804996;29;20053;-88
2021/09/26 02:49:24;;;;;;;21.52;11.85;;;16.20;99.90;;;;;;4796003;29;20047;-87
2021/09/26 02:51:51;;;;;;;17.92;11.40;;;16.20;99.90;;;;;;4803420;29;20074;-87
2021/09/26 02:54:19;;;;;;;25.45;12.68;;;16.20;99.90;;;;;;4820702;29;20122;-88
2021/09/26 02:56:45;;;;;;;17.58;12.60;;;16.20;99.90;;;;;;4804691;29;20088;-88
2021/09/26 02:59:11;;;;;;;21.20;12.52;;;16.20;99.90;;;;;;4802263;29;20042;-88
2021/09/26 03:01:51;;;;;;;20.77;13.02;;;16.20;99.90;;;;;;4788418;29;20057;-89
2021/09/26 03:04:17;;;;;;;26.15;13.35;;;16.20;99.90;;;;;;4820278;29;20090;-89
2021/09/26 03:06:43;;;;;;;23.27;13.35;;;16.20;99.90;;;;;;4791125;29;20058;-87
2021/09/26 03:09:08;;;;;;;23.10;13.80;;;16.20;99.90;;;;;;4777819;29;20055;-88
2021/09/26 03:11:34;;;;;;;18.83;12.88;;;16.20;99.90;;;;;;4789951;29;20436;-89
2021/09/26 03:14:00;;;;;;;26.65;12.50;;;16.20;99.90;;;;;;4786446;29;20114;-87
2021/09/26 03:16:26;;;;;;;22.42;13.13;;;16.20;99.90;;;;;;4803661;29;20081;-87
2021/09/26 03:18:51;;;;;;;19.48;11.38;;;16.20;99.90;;;;;;4804717;29;20098;-87
2021/09/26 03:21:17;;;;;;;27.08;14.45;;;16.20;99.90;;;;;;4802259;29;20483;-87
2021/09/26 03:23:43;;;;;;;26.50;15.45;;;16.20;99.90;;;;;;4786213;29;20051;-87
2021/09/26 03:26:08;;;;;;;22.02;13.50;;;16.20;99.90;;;;;;4816933;29;20050;-87
2021/09/26 03:28:34;;;;;;;20.75;12.45;;;16.20;99.90;;;;;;4789497;29;20110;-87
2021/09/26 03:31:00;;;;;;;23.13;15.20;;;16.20;99.90;;;;;;4803969;29;20066;-87
2021/09/26 03:33:26;;;;;;;23.65;14.75;;;16.20;99.90;;;;;;4803631;29;20070;-88
2021/09/26 03:35:51;;;;;;;24.17;13.57;;;16.20;99.90;;;;;;4795386;29;20328;-89
2021/09/26 03:38:17;;;;;;;27.45;15.15;;;16.20;99.90;;;;;;4783288;29;20055;-89
2021/09/26 03:40:43;;;;;;;32.30;16.83;;;16.20;99.90;;;;;;4766428;29;20065;-88
2021/09/26 03:43:09;;;;;;;33.03;14.95;;;16.20;99.90;;;;;;4803607;29;20125;-88
2021/09/26 03:45:35;;;;;;;29.30;15.50;;;16.20;99.90;;;;;;4804125;29;20133;-88
2021/09/26 03:48:00;;;;;;;28.88;16.60;;;16.10;99.90;;;;;;4804278;29;20488;-88
2021/09/26 03:50:26;;;;;;;26.27;14.85;;;16.20;99.90;;;;;;4803385;29;20054;-88
2021/09/26 03:52:52;;;;;;;24.05;14.82;;;16.20;99.90;;;;;;4778437;29;20051;-88
2021/09/26 03:55:18;;;;;;;26.23;15.57;;;16.20;99.90;;;;;;4814239;29;20054;-88
2021/09/26 03:57:46;;;;;;;23.48;16.33;;;16.10;99.90;;;;;;4796372;29;20460;-87
2021/09/26 04:00:15;;;;;;;35.20;17.13;;;16.20;99.90;;;;;;4791487;29;20081;-87
2021/09/26 04:02:41;;;;;;;34.55;18.15;;;16.10;99.90;;;;;;4807499;29;20055;-88
2021/09/26 04:05:08;;;;;;;33.33;15.98;;;16.20;99.90;;;;;;4802580;29;20397;-88
2021/09/26 04:07:35;;;;;;;29.83;16.92;;;16.20;99.90;;;;;;4796638;29;20046;-88
2021/09/26 04:10:01;;;;;;;25.73;17.67;;;16.20;99.90;;;;;;4774659;29;20519;-89
2021/09/26 04:12:27;;;;;;;31.63;18.20;;;16.10;99.90;;;;;;4800021;29;20065;-89
2021/09/26 04:14:52;;;;;;;32.28;16.60;;;16.10;99.90;;;;;;4804304;29;20039;-89
2021/09/26 04:17:21;;;;;;;33.53;17.83;;;16.00;99.90;;;;;;4803027;29;20111;-89
2021/09/26 04:19:46;;;;;;;27.70;17.67;;;15.90;99.90;;;;;;4819187;29;20046;-89
2021/09/26 04:22:12;;;;;;;31.20;19.38;;;15.90;99.90;;;;;;4798418;29;20050;-88
2021/09/26 04:24:38;;;;;;;33.92;18.58;;;15.80;99.90;;;;;;4788962;29;20050;-89
2021/09/26 04:27:03;;;;;;;30.45;18.52;;;15.70;99.90;;;;;;4774288;29;20055;-88
2021/09/26 04:29:29;;;;;;;31.88;18.92;;;15.70;99.90;;;;;;4803188;29;20839;-88
2021/09/26 04:31:55;;;;;;;35.70;20.65;;;15.70;99.90;;;;;;4793583;29;20112;-89
2021/09/26 04:34:25;;;;;;;36.00;19.98;;;15.60;99.90;;;;;;4776212;29;20055;-89
2021/09/26 04:36:52;;;;;;;28.65;18.83;;;15.60;99.90;;;;;;4805537;29;20090;-88
2021/09/26 04:39:18;;;;;;;36.17;18.70;;;15.50;99.90;;;;;;4805991;29;20107;-88
2021/09/26 04:41:43;;;;;;;34.95;19.02;;;15.40;99.90;;;;;;4791824;29;20047;-87
2021/09/26 04:44:09;;;;;;;34.95;19.92;;;15.40;99.90;;;;;;4769574;29;20521;-88
2021/09/26 04:46:35;;;;;;;34.88;20.65;;;15.30;99.90;;;;;;4806440;29;20181;-87
2021/09/26 04:49:01;;;;;;;33.38;19.48;;;15.30;99.90;;;;;;4798709;29;20051;-87
2021/09/26 04:51:26;;;;;;;35.05;20.65;;;15.30;99.90;;;;;;4783507;29;20411;-88
2021/09/26 04:53:52;;;;;;;28.80;18.92;;;15.20;99.90;;;;;;4791477;29;20070;-88
2021/09/26 04:56:18;;;;;;;40.95;21.77;;;15.20;99.90;;;;;;4800454;29;20484;-87
2021/09/26 04:58:43;;;;;;;29.88;19.00;;;15.10;99.90;;;;;;4791686;29;20042;-87
2021/09/26 05:01:10;;;;;;;43.35;21.27;;;15.10;99.90;;;;;;4781916;29;20058;-88
2021/09/26 05:03:36;;;;;;;39.65;21.77;;;15.10;99.90;;;;;;4775870;29;20095;-88
2021/09/26 05:06:02;;;;;;;48.42;22.95;;;15.10;99.90;;;;;;4806963;29;20050;-87
2021/09/26 05:08:28;;;;;;;41.45;23.45;;;15.10;99.90;;;;;;4792527;29;20881;-88
2021/09/26 05:10:53;;;;;;;37.20;21.40;;;15.10;99.90;;;;;;4792033;29;20081;-89
2021/09/26 05:13:19;;;;;;;34.08;19.95;;;15.10;99.90;;;;;;4806288;29;20113;-88
2021/09/26 05:15:45;;;;;;;45.38;22.77;;;15.10;99.90;;;;;;4822393;29;20073;-89
2021/09/26 05:18:12;;;;;;;37.63;21.17;;;15.00;99.90;;;;;;4806691;29;20057;-90
2021/09/26 05:20:38;;;;;;;44.03;23.67;;;15.00;99.90;;;;;;4790548;29;20634;-90
2021/09/26 05:23:03;;;;;;;39.55;21.90;;;15.00;99.90;;;;;;4778008;29;20058;-90
2021/09/26 05:25:29;;;;;;;44.58;23.65;;;14.90;99.90;;;;;;4805666;29;20111;-89
2021/09/26 05:27:55;;;;;;;40.72;23.27;;;14.90;99.90;;;;;;4806458;29;20054;-90
2021/09/26 05:30:21;;;;;;;47.67;23.00;;;14.80;99.90;;;;;;4820532;29;20130;-91
2021/09/26 05:32:47;;;;;;;49.25;24.08;;;14.90;99.90;;;;;;4805261;29;20066;-90
2021/09/26 05:35:13;;;;;;;38.38;22.65;;;14.80;99.90;;;;;;4806420;29;20054;-91
2021/09/26 05:37:39;;;;;;;35.28;19.65;;;14.80;99.90;;;;;;4805001;29;20114;-91
2021/09/26 05:40:06;;;;;;;42.42;23.48;;;14.80;99.90;;;;;;4791198;29;20058;-90
2021/09/26 05:42:33;;;;;;;37.92;21.60;;;14.80;99.90;;;;;;4803505;29;20519;-88
2021/09/26 05:44:59;;;;;;;49.28;22.60;;;14.80;99.90;;;;;;4795113;29;20046;-88
2021/09/26 05:47:24;;;;;;;40.65;22.75;;;14.80;99.90;;;;;;4789778;29;20054;-89
2021/09/26 05:49:50;;;;;;;43.38;21.80;;;14.70;99.90;;;;;;4805711;29;20489;-89
2021/09/26 05:52:16;;;;;;;49.25;24.17;;;14.70;99.90;;;;;;4792151;29;20046;-88
2021/09/26 05:54:42;;;;;;;40.13;22.98;;;14.70;99.90;;;;;;4772106;29;20119;-89
2021/09/26 05:57:09;;;;;;;48.05;24.80;;;14.60;99.90;;;;;;4787100;29;20066;-89
2021/09/26 05:59:38;;;;;;;54.30;24.40;;;14.70;99.90;;;;;;4785312;29;20042;-88
2021/09/26 06:02:10;;;;;;;52.83;25.20;;;14.70;99.90;;;;;;4776520;29;20067;-88
2021/09/26 06:04:36;;;;;;;50.55;25.15;;;14.70;99.90;;;;;;4772044;29;20051;-88
2021/09/26 06:07:03;;;;;;;45.10;21.77;;;14.60;99.90;;;;;;4772670;29;20062;-87
2021/09/26 06:09:29;;;;;;;43.63;20.10;;;14.60;99.90;;;;;;4776109;29;20084;-88
2021/09/26 06:11:55;;;;;;;55.58;25.60;;;14.60;99.90;;;;;;4790717;29;20058;-88
2021/09/26 06:14:21;;;;;;;49.30;25.92;;;14.60;99.90;;;;;;4805115;29;20042;-89
2021/09/26 06:16:47;;;;;;;46.15;23.60;;;14.60;99.90;;;;;;4805161;29;20515;-89
2021/09/26 06:19:13;;;;;;;52.55;25.50;;;14.60;99.90;;;;;;4805398;29;20618;-88
2021/09/26 06:21:43;;;;;;;44.38;24.20;;;14.60;99.90;;;;;;4804746;29;20042;-89
2021/09/26 06:24:11;;;;;;;54.20;26.85;;;14.70;99.90;;;;;;4812158;29;20510;-89
2021/09/26 06:26:40;;;;;;;52.08;25.55;;;14.70;99.90;;;;;;4786368;29;20114;-88
2021/09/26 06:29:05;;;;;;;47.08;25.65;;;14.70;99.90;;;;;;4799062;29;20058;-89
2021/09/26 06:31:31;;;;;;;46.58;24.95;;;14.70;99.90;;;;;;4814787;29;20053;-91
2021/09/26 06:33:57;;;;;;;50.20;25.10;;;14.70;99.90;;;;;;4787897;29;20063;-89
2021/09/26 06:36:23;;;;;;;45.78;24.45;;;14.70;99.90;;;;;;4787490;29;20052;-89
2021/09/26 06:38:48;;;;;;;51.25;26.02;;;14.70;99.90;;;;;;4804032;29;20119;-89
2021/09/26 06:41:15;;;;;;;45.08;24.75;;;14.70;99.90;;;;;;4804874;29;20054;-89
2021/09/26 06:43:41;;;;;;;54.15;25.23;;;14.70;99.90;;;;;;4799419;29;20126;-88
2021/09/26 06:46:07;;;;;;;53.75;26.70;;;14.70;99.90;;;;;;4799098;29;20567;-89
2021/09/26 06:48:33;;;;;;;47.72;24.17;;;14.70;99.90;;;;;;4804053;29;20380;-89
2021/09/26 06:50:58;;;;;;;50.78;26.50;;;14.70;99.90;;;;;;4805019;29;20415;-88
2021/09/26 06:53:24;;;;;;;56.30;27.33;;;14.70;99.90;;;;;;4804378;29;20054;-90
2021/09/26 06:55:50;;;;;;;43.75;25.25;;;14.80;99.90;;;;;;4785230;29;20089;-92
2021/09/26 06:58:15;;;;;;;54.22;26.52;;;14.80;99.90;;;;;;4790433;29;20052;-90
2021/09/26 07:00:42;;;;;;;46.90;25.75;;;14.90;99.90;;;;;;4803857;29;20046;-90
2021/09/26 07:03:07;;;;;;;54.58;26.88;;;14.90;99.90;;;;;;4789818;29;20055;-92
2021/09/26 07:05:33;;;;;;;50.45;26.90;;;15.00;99.90;;;;;;4785540;29;20161;-90
2021/09/26 07:07:59;;;;;;;45.28;25.25;;;15.00;99.90;;;;;;4786391;29;20059;-94
2021/09/26 07:10:24;;;;;;;45.75;25.55;;;15.10;99.90;;;;;;4790639;29;20051;-89
2021/09/26 07:12:50;;;;;;;46.17;25.40;;;15.10;99.90;;;;;;4786142;29;20126;-91
2021/09/26 07:15:16;;;;;;;49.92;27.98;;;15.20;99.90;;;;;;4786399;29;20092;-91
2021/09/26 07:17:41;;;;;;;42.90;23.02;;;15.30;99.90;;;;;;4785383;29;20043;-90
2021/09/26 07:20:07;;;;;;;35.53;21.48;;;15.30;99.90;;;;;;4786303;29;20487;-91
2021/09/26 07:22:33;;;;;;;40.20;23.77;;;15.30;99.90;;;;;;4785154;29;20058;-88
2021/09/26 07:24:59;;;;;;;44.30;24.02;;;15.40;99.90;;;;;;4786381;29;20061;-90
2021/09/26 07:27:26;;;;;;;35.95;21.73;;;15.40;99.90;;;;;;4794910;29;20047;-89
2021/09/26 07:29:56;;;;;;;33.42;21.52;;;15.50;99.90;;;;;;4785685;29;20115;-90
2021/09/26 07:32:22;;;;;;;41.42;23.35;;;15.60;99.90;;;;;;4787555;29;20066;-91
2021/09/26 07:34:50;;;;;;;37.33;21.15;;;15.60;99.90;;;;;;4785052;29;20061;-90
2021/09/26 07:37:16;;;;;;;31.67;20.33;;;15.60;99.90;;;;;;4771306;29;20126;-89
2021/09/26 07:39:42;;;;;;;34.20;21.77;;;15.70;99.90;;;;;;4785197;29;20055;-90
2021/09/26 07:42:07;;;;;;;33.78;20.92;;;15.80;99.90;;;;;;4786362;29;20055;-89
2021/09/26 07:44:33;;;;;;;39.42;21.30;;;15.80;99.90;;;;;;4770459;29;20078;-88
2021/09/26 07:46:59;;;;;;;34.33;20.48;;;15.90;99.90;;;;;;4780927;29;20137;-89
2021/09/26 07:49:25;;;;;;;26.45;18.63;;;16.00;99.90;;;;;;4763850;29;20708;-89
2021/09/26 07:51:50;;;;;;;30.90;19.15;;;16.00;99.90;;;;;;4784561;29;20058;-89
2021/09/26 07:54:16;;;;;;;28.95;19.23;;;16.10;99.90;;;;;;4785363;29;20057;-89
2021/09/26 07:56:45;;;;;;;28.45;19.15;;;16.10;99.90;;;;;;4776666;29;20111;-89
2021/09/26 07:59:11;;;;;;;29.35;18.88;;;16.20;99.90;;;;;;4790812;29;20115;-89
2021/09/26 08:01:37;;;;;;;29.65;18.98;;;16.20;99.90;;;;;;4787015;29;20086;-88
2021/09/26 08:04:03;;;;;;;24.80;18.05;;;16.30;99.90;;;;;;4771126;29;20046;-90
2021/09/26 08:06:29;;;;;;;28.05;17.52;;;16.40;99.90;;;;;;4786089;29;20075;-90
2021/09/26 08:08:56;;;;;;;22.02;15.88;;;16.50;99.90;;;;;;4785253;29;20049;-90
2021/09/26 08:11:22;;;;;;;21.73;14.43;;;16.60;99.90;;;;;;4795477;29;20054;-89
2021/09/26 08:13:47;;;;;;;16.45;13.23;;;16.60;99.90;;;;;;4806834;29;20122;-90
2021/09/26 08:16:13;;;;;;;23.80;14.07;;;16.70;99.90;;;;;;4807429;29;20500;-90
2021/09/26 08:18:39;;;;;;;17.48;12.82;;;16.80;99.90;;;;;;4806940;29;20496;-88
2021/09/26 08:21:05;;;;;;;19.00;13.48;;;16.90;99.90;;;;;;4792232;29;20137;-88
2021/09/26 08:23:31;;;;;;;21.33;13.93;;;16.90;99.90;;;;;;4792224;29;20058;-89
2021/09/26 08:25:56;;;;;;;15.95;13.02;;;17.00;99.90;;;;;;4787694;29;20735;-89
2021/09/26 08:28:23;;;;;;;14.88;11.82;;;17.00;99.90;;;;;;4780840;29;20050;-90
2021/09/26 08:30:50;;;;;;;20.17;12.75;;;17.10;99.90;;;;;;4806536;29;20133;-89
2021/09/26 08:33:16;;;;;;;18.30;13.18;;;17.20;99.90;;;;;;4807186;29;20418;-90
2021/09/26 08:35:42;;;;;;;16.00;11.95;;;17.30;99.90;;;;;;4790792;29;20049;-89
2021/09/26 08:38:07;;;;;;;16.30;12.60;;;17.30;99.90;;;;;;4806865;29;20054;-90
2021/09/26 08:40:33;;;;;;;19.25;13.07;;;17.40;99.90;;;;;;4806982;29;20062;-90
2021/09/26 08:43:02;;;;;;;17.58;13.18;;;17.40;99.90;;;;;;4806047;29;20054;-90
2021/09/26 08:45:29;;;;;;;19.35;13.68;;;17.50;99.90;;;;;;4801102;29;20051;-88
2021/09/26 08:47:57;;;;;;;17.75;13.25;;;17.60;99.90;;;;;;4788000;29;20082;-90
2021/09/26 08:50:23;;;;;;;20.02;12.60;;;17.60;99.90;;;;;;4788438;29;20049;-91
2021/09/26 08:52:49;;;;;;;20.45;12.50;;;17.70;99.90;;;;;;4787931;29;20856;-90
2021/09/26 08:55:15;;;;;;;14.52;11.65;;;17.80;99.90;;;;;;4803297;29;20042;-91
2021/09/26 08:57:42;;;;;;;12.13;10.73;;;17.80;99.90;;;;;;4788180;29;20051;-88
2021/09/26 09:00:10;;;;;;;15.70;11.07;;;18.00;99.90;;;;;;4789860;29;20043;-90
2021/09/26 09:02:36;;;;;;;13.20;10.80;;;18.10;99.90;;;;;;4791748;29;20140;-90
2021/09/26 09:05:05;;;;;;;13.88;10.82;;;18.20;99.90;;;;;;4786413;29;20880;-90
2021/09/26 09:07:31;;;;;;;11.63;10.05;;;18.20;99.90;;;;;;4785266;29;20507;-90
2021/09/26 09:09:59;;;;;;;15.98;10.05;;;18.30;99.90;;;;;;4773292;29;20153;-88
2021/09/26 09:12:35;;;;;;;15.07;10.55;;;18.30;99.90;;;;;;4794488;29;20411;-89
2021/09/26 09:15:08;;;;;;;15.00;9.38;;;18.40;99.90;;;;;;4802799;29;20055;-88
2021/09/26 09:17:40;;;;;;;15.00;9.75;;;18.40;99.90;;;;;;4802907;29;20046;-89
2021/09/26 09:20:27;;;;;;;14.93;9.43;;;18.50;99.90;;;;;;4802436;29;20058;-89
2021/09/26 09:23:06;;;;;;;13.00;9.88;;;18.60;99.90;;;;;;4790029;29;20050;-91
2021/09/26 09:25:47;;;;;;;14.43;9.60;;;18.70;99.90;;;;;;4792420;29;20380;-90
2021/09/26 09:28:25;;;;;;;28.60;9.85;;;18.80;99.90;;;;;;4801294;29;20766;-90
2021/09/26 09:30:54;;;;;;;11.95;9.65;;;18.90;99.90;;;;;;4804085;29;20134;-90
2021/09/26 09:33:22;;;;;;;13.75;10.50;;;19.00;99.90;;;;;;4784333;29;20055;-90
2021/09/26 09:35:53;;;;;;;22.83;10.15;;;19.10;99.90;;;;;;4780802;29;20050;-91
2021/09/26 09:38:35;;;;;;;11.50;10.15;;;19.20;99.90;;;;;;4785390;29;20055;-91
2021/09/26 09:41:01;;;;;;;17.40;9.23;;;19.30;99.90;;;;;;4784609;29;20086;-91
2021/09/26 09:43:27;;;;;;;16.55;9.70;;;19.30;99.90;;;;;;4772650;29;20463;-90
2021/09/26 09:46:01;;;;;;;14.35;9.13;;;19.50;99.90;;;;;;4787138;29;20051;-88
2021/09/26 09:48:31;;;;;;;10.35;8.52;;;19.50;99.90;;;;;;4775890;29;20050;-91
2021/09/26 09:51:09;;;;;;;10.35;9.05;;;19.70;99.90;;;;;;4784366;29;20094;-90
2021/09/26 09:53:37;;;;;;;10.63;8.32;;;19.70;99.90;;;;;;4769602;29;20053;-90
2021/09/26 09:56:17;;;;;;;12.45;8.10;;;19.80;99.90;;;;;;4769251;29;20054;-91
2021/09/26 09:58:51;;;;;;;10.02;7.63;;;19.80;99.90;;;;;;4784964;29;20647;-91
2021/09/26 10:01:26;;;;;;;9.73;8.07;;;19.80;99.90;;;;;;4788360;29;21006;-90
2021/09/26 10:03:56;;;;;;;11.75;8.32;;;19.70;99.90;;;;;;4784438;29;20055;-91
2021/09/26 10:06:28;;;;;;;11.95;7.45;;;19.70;99.90;;;;;;4784474;29;20088;-91
2021/09/26 10:08:56;;;;;;;12.52;8.23;;;19.70;99.90;;;;;;4770890;29;20055;-89
2021/09/26 10:11:22;;;;;;;11.15;8.00;;;19.60;99.90;;;;;;4794132;29;20054;-90
2021/09/26 10:13:48;;;;;;;10.52;8.43;;;19.60;99.90;;;;;;4786472;29;20463;-89
2021/09/26 10:16:14;;;;;;;10.27;8.23;;;19.60;99.90;;;;;;4803421;29;20107;-90
2021/09/26 10:18:42;;;;;;;14.70;8.32;;;19.60;99.90;;;;;;4790567;29;20179;-90
2021/09/26 10:21:09;;;;;;;9.57;8.52;;;19.60;99.90;;;;;;4772227;29;20115;-91
2021/09/26 10:23:35;;;;;;;11.85;8.77;;;19.60;99.90;;;;;;4820491;29;20051;-91
2021/09/26 10:26:02;;;;;;;10.13;8.93;;;19.50;99.90;;;;;;4804349;29;20061;-89
2021/09/26 10:28:31;;;;;;;8.82;7.78;;;19.60;99.90;;;;;;4805391;29;20137;-90
2021/09/26 10:31:02;;;;;;;10.85;8.88;;;19.60;99.90;;;;;;4814783;29;20432;-91
2021/09/26 10:33:28;;;;;;;10.85;8.48;;;19.60;99.90;;;;;;4805120;29;20087;-91
2021/09/26 10:35:56;;;;;;;10.02;8.32;;;19.60;99.90;;;;;;4804563;29;20054;-90
2021/09/26 10:38:23;;;;;;;10.77;7.72;;;19.60;99.90;;;;;;4804626;29;20129;-92
2021/09/26 10:40:49;;;;;;;12.02;8.57;;;19.70;99.90;;;;;;4801561;29;20053;-89
2021/09/26 10:43:20;;;;;;;10.18;8.68;;;19.80;99.90;;;;;;4804279;29;20038;-89
2021/09/26 10:45:47;;;;;;;9.27;8.18;;;19.80;99.90;;;;;;4804917;29;20608;-89
2021/09/26 10:48:14;;;;;;;10.13;7.90;;;19.90;99.90;;;;;;4788902;29;20054;-90
2021/09/26 10:50:41;;;;;;;11.88;9.40;;;20.00;99.90;;;;;;4804333;29;20039;-90
2021/09/26 10:53:13;;;;;;;11.95;9.18;;;20.00;99.90;;;;;;4801364;29;20154;-91
2021/09/26 10:55:40;;;;;;;9.57;8.02;;;20.10;99.90;;;;;;4786872;29;20082;-91
2021/09/26 10:58:06;;;;;;;10.52;8.90;;;20.20;99.90;;;;;;4786022;29;20119;-91
2021/09/26 11:00:31;;;;;;;15.60;9.20;;;20.30;99.90;;;;;;4786513;29;20080;-92
2021/09/26 11:03:14;;;;;;;12.75;8.48;;;20.40;99.90;;;;;;4795033;29;20666;-90
2021/09/26 11:05:41;;;;;;;15.90;8.43;;;20.60;99.90;;;;;;4796369;29;20830;-89
2021/09/26 11:08:11;;;;;;;11.85;8.35;;;20.80;99.90;;;;;;4786073;29;20063;-90
2021/09/26 11:10:38;;;;;;;;;;;21.00;99.90;;;;;;4787165;29;20065;-89
2021/09/26 11:13:23;;;;;;;13.80;7.60;;;21.30;99.90;;;;;;4803557;29;19932;-89
2021/09/26 11:16:09;;;;;;;12.20;7.43;;;21.50;99.90;;;;;;4800418;29;20051;-90
2021/09/26 11:19:11;;;;;;;11.23;7.97;;;21.60;99.90;;;;;;4804773;29;20081;-91
2021/09/26 11:21:37;;;;;;;14.32;8.30;;;21.80;99.90;;;;;;4797804;29;20062;-89
2021/09/26 11:24:08;;;;;;;8.63;7.47;;;21.80;99.90;;;;;;4788523;29;20065;-91
2021/09/26 11:26:56;;;;;;;10.45;7.82;;;21.80;99.90;;;;;;4792263;29;20042;-90
2021/09/26 11:29:29;;;;;;;11.43;7.72;;;21.90;99.90;;;;;;4804199;29;20082;-90
2021/09/26 11:31:56;;;;;;;10.73;6.90;;;21.80;99.90;;;;;;4789585;29;20523;-89
2021/09/26 11:34:42;;;;;;;10.40;8.23;;;21.90;99.90;;;;;;4787157;29;20043;-91
2021/09/26 11:37:12;;;;;;;10.90;7.78;;;22.00;99.90;;;;;;4799000;29;20122;-90
2021/09/26 11:39:39;;;;;;;8.90;6.85;;;22.10;99.90;;;;;;4785971;29;20062;-91
2021/09/26 11:42:27;;;;;;;15.75;7.97;;;22.10;99.90;;;;;;4786129;29;20059;-89
2021/09/26 11:44:53;;;;;;;7.88;6.53;;;22.30;99.90;;;;;;4784355;29;20496;-90
2021/09/26 11:47:19;;;;;;;10.45;7.07;;;22.30;99.90;;;;;;4784624;29;20066;-90
2021/09/26 11:49:45;;;;;;;8.20;6.50;;;22.30;99.90;;;;;;4771956;29;20058;-90
2021/09/26 11:52:11;;;;;;;12.55;6.45;;;22.40;99.90;;;;;;4775119;29;20090;-90
2021/09/26 11:54:37;;;;;;;9.77;5.75;;;22.50;99.90;;;;;;4786521;29;20055;-90
2021/09/26 11:57:02;;;;;;;7.18;6.20;;;22.50;99.90;;;;;;4786262;29;20047;-91
2021/09/26 11:59:37;;;;;;;7.10;6.30;;;22.50;99.90;;;;;;4786254;29;20062;-89
2021/09/26 12:02:11;;;;;;;6.93;5.80;;;22.60;99.90;;;;;;4802299;29;20184;-89
2021/09/26 12:04:37;;;;;;;9.95;5.55;;;22.60;99.90;;;;;;4787550;29;20125;-91
2021/09/26 12:07:05;;;;;;;6.80;5.47;;;22.70;99.90;;;;;;4785637;29;20161;-89
2021/09/26 12:09:48;;;;;;;9.10;6.10;;;22.60;99.90;;;;;;4779386;29;20514;-90
2021/09/26 12:12:20;;;;;;;6.32;5.72;;;22.50;99.90;;;;;;4793619;29;20059;-91
2021/09/26 12:14:58;;;;;;;11.10;6.00;;;22.50;99.90;;;;;;4790134;29;20050;-90
2021/09/26 12:17:26;;;;;;;11.32;6.00;;;22.50;99.90;;;;;;4801423;29;20129;-93
2021/09/26 12:20:05;;;;;;;7.40;6.35;;;22.50;99.90;;;;;;4774803;29;20066;-93
2021/09/26 12:22:31;;;;;;;8.27;6.05;;;22.60;99.90;;;;;;4789242;29;20084;-91
2021/09/26 12:25:10;;;;;;;8.80;5.97;;;22.50;99.90;;;;;;4789256;29;20062;-92
2021/09/26 12:27:52;;;;;;;7.97;5.75;;;22.80;99.90;;;;;;4790530;29;20057;-91
2021/09/26 12:30:25;;;;;;;11.95;5.97;;;23.00;99.90;;;;;;4787956;29;20055;-92
2021/09/26 12:33:07;;;;;;;9.40;5.28;;;23.30;99.90;;;;;;4789082;29;20289;-91
2021/09/26 12:35:40;;;;;;;8.52;6.00;;;23.20;99.90;;;;;;4798231;29;20047;-91
2021/09/26 12:38:24;;;;;;;6.72;5.78;;;23.30;99.90;;;;;;4775007;29;20441;-91